sensor_id;sensor_type;location;lat;lon;timestamp;pressure;altitude;pressure_sealevel;temperature;humidity
26697;BME280;14312;52.614;13.496;2022-08-21T00:01:41;100880.47;;;25.97;57.89
26697;BME280;14312;52.614;13.496;2022-08-21T00:04:27;100876.13;;;25.96;57.71
26697;BME280;14312;52.614;13.496;2022-08-21T00:07:13;100873.41;;;25.96;57.75
26697;BME280;14312;52.614;13.496;2022-08-21T00:09:59;100869.06;;;25.95;57.75
26697;BME280;14312;52.614;13.496;2022-08-21T00:12:46;100874.53;;;25.95;57.85
26697;BME280;14312;52.614;13.496;2022-08-21T00:15:35;100870.69;;;25.96;57.64
26697;BME280;14312;52.614;13.496;2022-08-21T00:18:21;100872.94;;;25.94;57.65
26697;BME280;14312;52.614;13.496;2022-08-21T00:21:07;100882.28;;;25.93;57.55
26697;BME280;14312;52.614;13.496;2022-08-21T00:23:54;100876.84;;;25.93;57.38
26697;BME280;14312;52.614;13.496;2022-08-21T00:26:39;100879.09;;;25.91;57.16
26697;BME280;14312;52.614;13.496;2022-08-21T00:29:25;100868.16;;;25.91;57.40
26697;BME280;14312;52.614;13.496;2022-08-21T00:32:11;100866.56;;;25.90;57.48
26697;BME280;14312;52.614;13.496;2022-08-21T00:34:57;100865.75;;;25.90;57.63
26697;BME280;14312;52.614;13.496;2022-08-21T00:37:44;100873.50;;;25.88;57.23
26697;BME280;14312;52.614;13.496;2022-08-21T00:40:37;100872.34;;;25.89;57.39
26697;BME280;14312;52.614;13.496;2022-08-21T00:43:26;100871.88;;;25.87;57.35
26697;BME280;14312;52.614;13.496;2022-08-21T00:46:13;100867.91;;;25.84;57.23
26697;BME280;14312;52.614;13.496;2022-08-21T00:48:59;100860.84;;;25.83;57.36
26697;BME280;14312;52.614;13.496;2022-08-21T00:51:57;100871.09;;;25.86;57.24
26697;BME280;14312;52.614;13.496;2022-08-21T00:54:46;100871.31;;;25.81;57.22
26697;BME280;14312;52.614;13.496;2022-08-21T00:57:44;100866.31;;;25.83;57.27
26697;BME280;14312;52.614;13.496;2022-08-21T01:00:35;100865.38;;;25.79;57.11
26697;BME280;14312;52.614;13.496;2022-08-21T01:03:23;100874.72;;;25.78;57.23
26697;BME280;14312;52.614;13.496;2022-08-21T01:06:10;100865.59;;;25.74;57.14
26697;BME280;14312;52.614;13.496;2022-08-21T01:08:56;100863.56;;;25.71;56.72
26697;BME280;14312;52.614;13.496;2022-08-21T01:11:42;100871.28;;;25.69;57.20
26697;BME280;14312;52.614;13.496;2022-08-21T01:14:29;100868.06;;;25.67;56.76
26697;BME280;14312;52.614;13.496;2022-08-21T01:17:16;100870.31;;;25.65;56.79
26697;BME280;14312;52.614;13.496;2022-08-21T01:20:06;100867.16;;;25.63;56.74
26697;BME280;14312;52.614;13.496;2022-08-21T01:22:53;100863.00;;;25.57;56.60
26697;BME280;14312;52.614;13.496;2022-08-21T01:25:39;100864.94;;;25.56;56.82
26697;BME280;14312;52.614;13.496;2022-08-21T01:28:26;100869.13;;;25.54;56.76
26697;BME280;14312;52.614;13.496;2022-08-21T01:31:14;100865.94;;;25.52;56.58
26697;BME280;14312;52.614;13.496;2022-08-21T01:34:01;100865.81;;;25.48;56.95
26697;BME280;14312;52.614;13.496;2022-08-21T01:36:47;100877.06;;;25.47;56.72
26697;BME280;14312;52.614;13.496;2022-08-21T01:39:33;100879.31;;;25.45;56.95
26697;BME280;14312;52.614;13.496;2022-08-21T01:42:19;100878.88;;;25.43;56.98
26697;BME280;14312;52.614;13.496;2022-08-21T01:45:07;100884.31;;;25.43;56.74
26697;BME280;14312;52.614;13.496;2022-08-21T01:47:53;100888.84;;;25.39;56.74
26697;BME280;14312;52.614;13.496;2022-08-21T01:50:39;100878.59;;;25.35;56.94
26697;BME280;14312;52.614;13.496;2022-08-21T01:53:25;100885.63;;;25.36;56.77
26697;BME280;14312;52.614;13.496;2022-08-21T01:56:13;100874.72;;;25.36;56.78
26697;BME280;14312;52.614;13.496;2022-08-21T01:58:59;100867.22;;;25.33;56.83
26697;BME280;14312;52.614;13.496;2022-08-21T02:01:45;100862.88;;;25.32;57.12
26697;BME280;14312;52.614;13.496;2022-08-21T02:04:32;100872.19;;;25.31;56.98
26697;BME280;14312;52.614;13.496;2022-08-21T02:07:21;100872.34;;;25.35;56.80
26697;BME280;14312;52.614;13.496;2022-08-21T02:10:08;100874.59;;;25.33;56.89
26697;BME280;14312;52.614;13.496;2022-08-21T02:12:55;100876.06;;;25.30;56.70
26697;BME280;14312;52.614;13.496;2022-08-21T02:15:42;100878.34;;;25.28;56.69
26697;BME280;14312;52.614;13.496;2022-08-21T02:18:28;100872.41;;;25.26;56.62
26697;BME280;14312;52.614;13.496;2022-08-21T02:21:15;100872.72;;;25.25;56.49
26697;BME280;14312;52.614;13.496;2022-08-21T02:24:01;100884.44;;;25.25;56.70
26697;BME280;14312;52.614;13.496;2022-08-21T02:26:47;100885.09;;;25.22;56.57
26697;BME280;14312;52.614;13.496;2022-08-21T02:29:33;100881.91;;;25.20;56.13
26697;BME280;14312;52.614;13.496;2022-08-21T02:32:19;100880.31;;;25.19;56.15
26697;BME280;14312;52.614;13.496;2022-08-21T02:35:07;100870.84;;;25.17;56.31
26697;BME280;14312;52.614;13.496;2022-08-21T02:37:57;100880.97;;;25.16;56.02
26697;BME280;14312;52.614;13.496;2022-08-21T02:40:48;100874.59;;;25.12;56.04
26697;BME280;14312;52.614;13.496;2022-08-21T02:43:35;100876.38;;;25.08;55.91
26697;BME280;14312;52.614;13.496;2022-08-21T02:46:21;100874.31;;;25.05;56.38
26697;BME280;14312;52.614;13.496;2022-08-21T02:49:07;100876.56;;;25.03;55.98
26697;BME280;14312;52.614;13.496;2022-08-21T02:51:53;100873.38;;;25.01;56.05
26697;BME280;14312;52.614;13.496;2022-08-21T02:54:39;100873.25;;;24.98;55.73
26697;BME280;14312;52.614;13.496;2022-08-21T02:57:25;100871.53;;;24.93;56.00
26697;BME280;14312;52.614;13.496;2022-08-21T03:00:11;100874.56;;;24.91;55.80
26697;BME280;14312;52.614;13.496;2022-08-21T03:02:59;100869.28;;;24.86;55.85
26697;BME280;14312;52.614;13.496;2022-08-21T03:05:49;100873.47;;;24.84;55.89
26697;BME280;14312;52.614;13.496;2022-08-21T03:08:35;100877.97;;;24.80;56.18
26697;BME280;14312;52.614;13.496;2022-08-21T03:11:25;100871.56;;;24.76;55.99
26697;BME280;14312;52.614;13.496;2022-08-21T03:14:12;100873.03;;;24.73;55.97
26697;BME280;14312;52.614;13.496;2022-08-21T03:16:57;100871.78;;;24.71;55.92
26697;BME280;14312;52.614;13.496;2022-08-21T03:19:43;100868.56;;;24.69;55.98
26697;BME280;14312;52.614;13.496;2022-08-21T03:22:30;100868.09;;;24.67;56.03
26697;BME280;14312;52.614;13.496;2022-08-21T03:25:16;100866.84;;;24.64;56.23
26697;BME280;14312;52.614;13.496;2022-08-21T03:28:09;100863.75;;;24.66;55.88
26697;BME280;14312;52.614;13.496;2022-08-21T03:31:08;100863.97;;;24.61;56.02
26697;BME280;14312;52.614;13.496;2022-08-21T03:34:04;100874.06;;;24.60;55.90
26697;BME280;14312;52.614;13.496;2022-08-21T03:36:49;100868.94;;;24.58;56.22
26697;BME280;14312;52.614;13.496;2022-08-21T03:39:36;100868.47;;;24.56;55.77
26697;BME280;14312;52.614;13.496;2022-08-21T03:42:22;100869.59;;;24.55;55.61
26697;BME280;14312;52.614;13.496;2022-08-21T03:45:14;100871.84;;;24.53;55.45
26697;BME280;14312;52.614;13.496;2022-08-21T03:48:02;100875.25;;;24.50;55.50
26697;BME280;14312;52.614;13.496;2022-08-21T03:50:54;100874.94;;;24.43;55.28
26697;BME280;14312;52.614;13.496;2022-08-21T03:53:41;100872.38;;;24.38;55.35
26697;BME280;14312;52.614;13.496;2022-08-21T03:56:27;100879.63;;;24.34;55.10
26697;BME280;14312;52.614;13.496;2022-08-21T03:59:13;100879.81;;;24.29;55.40
26697;BME280;14312;52.614;13.496;2022-08-21T04:02:02;100875.81;;;24.27;55.39
26697;BME280;14312;52.614;13.496;2022-08-21T04:04:49;100877.91;;;24.21;55.26
26697;BME280;14312;52.614;13.496;2022-08-21T04:07:35;100878.53;;;24.18;55.48
26697;BME280;14312;52.614;13.496;2022-08-21T04:10:26;100882.38;;;24.17;55.48
26697;BME280;14312;52.614;13.496;2022-08-21T04:13:13;100880.13;;;24.10;55.45
26697;BME280;14312;52.614;13.496;2022-08-21T04:16:00;100879.53;;;24.05;55.35
26697;BME280;14312;52.614;13.496;2022-08-21T04:18:55;100886.75;;;24.01;55.52
26697;BME280;14312;52.614;13.496;2022-08-21T04:21:43;100886.25;;;23.99;55.61
26697;BME280;14312;52.614;13.496;2022-08-21T04:24:35;100897.78;;;23.96;55.78
26697;BME280;14312;52.614;13.496;2022-08-21T04:27:21;100900.69;;;23.91;55.64
26697;BME280;14312;52.614;13.496;2022-08-21T04:30:10;100897.47;;;23.89;55.51
26697;BME280;14312;52.614;13.496;2022-08-21T04:32:57;100894.31;;;23.87;55.55
26697;BME280;14312;52.614;13.496;2022-08-21T04:35:45;100894.13;;;23.83;55.78
26697;BME280;14312;52.614;13.496;2022-08-21T04:38:31;100884.69;;;23.80;55.66
26697;BME280;14312;52.614;13.496;2022-08-21T04:41:21;100897.03;;;23.78;55.96
26697;BME280;14312;52.614;13.496;2022-08-21T04:44:07;100884.53;;;23.77;55.95
26697;BME280;14312;52.614;13.496;2022-08-21T04:46:54;100882.13;;;23.75;56.02
26697;BME280;14312;52.614;13.496;2022-08-21T04:49:40;100893.00;;;23.75;55.97
26697;BME280;14312;52.614;13.496;2022-08-21T04:52:34;100893.19;;;23.79;56.14
26697;BME280;14312;52.614;13.496;2022-08-21T04:55:25;100887.56;;;23.75;56.07
26697;BME280;14312;52.614;13.496;2022-08-21T04:58:18;100885.34;;;23.77;56.13
26697;BME280;14312;52.614;13.496;2022-08-21T05:01:09;100893.50;;;23.77;56.07
26697;BME280;14312;52.614;13.496;2022-08-21T05:03:59;100896.22;;;23.77;55.85
26697;BME280;14312;52.614;13.496;2022-08-21T05:06:50;100892.38;;;23.78;55.78
26697;BME280;14312;52.614;13.496;2022-08-21T05:09:40;100894.63;;;23.76;55.75
26697;BME280;14312;52.614;13.496;2022-08-21T05:12:26;100895.25;;;23.73;55.95
26697;BME280;14312;52.614;13.496;2022-08-21T05:15:15;100899.56;;;23.74;55.93
26697;BME280;14312;52.614;13.496;2022-08-21T05:18:02;100901.34;;;23.70;56.00
26697;BME280;14312;52.614;13.496;2022-08-21T05:20:52;100903.59;;;23.68;55.96
26697;BME280;14312;52.614;13.496;2022-08-21T05:23:38;100903.59;;;23.68;55.78
26697;BME280;14312;52.614;13.496;2022-08-21T05:26:24;100902.78;;;23.68;56.17
26697;BME280;14312;52.614;13.496;2022-08-21T05:29:14;100907.91;;;23.69;55.89
26697;BME280;14312;52.614;13.496;2022-08-21T05:32:07;100910.16;;;23.67;55.74
26697;BME280;14312;52.614;13.496;2022-08-21T05:34:54;100912.88;;;23.67;56.08
26697;BME280;14312;52.614;13.496;2022-08-21T05:37:40;100912.88;;;23.67;55.90
26697;BME280;14312;52.614;13.496;2022-08-21T05:40:26;100914.47;;;23.68;55.82
26697;BME280;14312;52.614;13.496;2022-08-21T05:43:14;100914.47;;;23.68;55.94
26697;BME280;14312;52.614;13.496;2022-08-21T05:46:00;100918.31;;;23.67;55.87
26697;BME280;14312;52.614;13.496;2022-08-21T05:48:46;100909.03;;;23.68;55.77
26697;BME280;14312;52.614;13.496;2022-08-21T05:51:32;100910.16;;;23.67;55.31
26697;BME280;14312;52.614;13.496;2022-08-21T05:54:18;100920.56;;;23.65;55.52
26697;BME280;14312;52.614;13.496;2022-08-21T05:57:04;100914.16;;;23.61;55.48
26697;BME280;14312;52.614;13.496;2022-08-21T05:59:50;100919.09;;;23.59;55.51
26697;BME280;14312;52.614;13.496;2022-08-21T06:02:36;100924.09;;;23.57;55.38
26697;BME280;14312;52.614;13.496;2022-08-21T06:05:23;100915.44;;;23.55;55.84
26697;BME280;14312;52.614;13.496;2022-08-21T06:08:09;100914.50;;;23.51;55.65
26697;BME280;14312;52.614;13.496;2022-08-21T06:10:57;100919.94;;;23.51;55.72
26697;BME280;14312;52.614;13.496;2022-08-21T06:13:43;100927.59;;;23.49;55.62
26697;BME280;14312;52.614;13.496;2022-08-21T06:16:29;100924.66;;;23.46;55.95
26697;BME280;14312;52.614;13.496;2022-08-21T06:19:15;100925.00;;;23.44;55.74
26697;BME280;14312;52.614;13.496;2022-08-21T06:22:01;100929.66;;;23.43;55.77
26697;BME280;14312;52.614;13.496;2022-08-21T06:24:47;100930.47;;;23.44;56.16
26697;BME280;14312;52.614;13.496;2022-08-21T06:27:33;100925.00;;;23.44;55.92
26697;BME280;14312;52.614;13.496;2022-08-21T06:30:19;100927.41;;;23.46;56.43
26697;BME280;14312;52.614;13.496;2022-08-21T06:33:07;100930.31;;;23.49;56.20
26697;BME280;14312;52.614;13.496;2022-08-21T06:35:53;100932.25;;;23.49;56.33
26697;BME280;14312;52.614;13.496;2022-08-21T06:38:39;100929.22;;;23.50;56.10
26697;BME280;14312;52.614;13.496;2022-08-21T06:41:25;100922.66;;;23.51;56.16
26697;BME280;14312;52.614;13.496;2022-08-21T06:44:12;100941.03;;;23.54;56.20
26697;BME280;14312;52.614;13.496;2022-08-21T06:46:57;100929.03;;;23.55;56.24
26697;BME280;14312;52.614;13.496;2022-08-21T06:49:43;100932.72;;;23.59;56.41
26697;BME280;14312;52.614;13.496;2022-08-21T06:52:29;100926.66;;;23.62;56.14
26697;BME280;14312;52.614;13.496;2022-08-21T06:55:16;100927.13;;;23.64;56.06
26697;BME280;14312;52.614;13.496;2022-08-21T06:58:03;100925.34;;;23.68;56.21
26697;BME280;14312;52.614;13.496;2022-08-21T07:00:49;100920.53;;;23.74;56.05
26697;BME280;14312;52.614;13.496;2022-08-21T07:03:39;100931.28;;;23.79;56.00
26697;BME280;14312;52.614;13.496;2022-08-21T07:06:25;100935.28;;;23.81;56.16
26697;BME280;14312;52.614;13.496;2022-08-21T07:09:11;100933.03;;;23.84;56.03
26697;BME280;14312;52.614;13.496;2022-08-21T07:11:57;100933.97;;;23.88;56.06
26697;BME280;14312;52.614;13.496;2022-08-21T07:14:43;100929.50;;;23.92;55.98
26697;BME280;14312;52.614;13.496;2022-08-21T07:17:30;100925.00;;;23.96;55.74
26697;BME280;14312;52.614;13.496;2022-08-21T07:20:16;100920.22;;;24.01;55.65
26697;BME280;14312;52.614;13.496;2022-08-21T07:23:05;100923.09;;;24.05;55.57
26697;BME280;14312;52.614;13.496;2022-08-21T07:25:52;100921.31;;;24.09;55.39
26697;BME280;14312;52.614;13.496;2022-08-21T07:28:38;100921.16;;;24.14;55.55
26697;BME280;14312;52.614;13.496;2022-08-21T07:31:25;100925.47;;;24.15;55.31
26697;BME280;14312;52.614;13.496;2022-08-21T07:34:12;100921.50;;;24.21;55.94
26697;BME280;14312;52.614;13.496;2022-08-21T07:36:58;100910.41;;;24.26;55.44
26697;BME280;14312;52.614;13.496;2022-08-21T07:39:44;100908.00;;;24.33;55.31
26697;BME280;14312;52.614;13.496;2022-08-21T07:42:34;100909.09;;;24.41;55.48
26697;BME280;14312;52.614;13.496;2022-08-21T07:45:21;100921.09;;;24.48;54.88
26697;BME280;14312;52.614;13.496;2022-08-21T07:48:09;100911.59;;;24.54;55.19
26697;BME280;14312;52.614;13.496;2022-08-21T07:50:55;100912.69;;;24.62;54.83
26697;BME280;14312;52.614;13.496;2022-08-21T07:53:42;100916.50;;;24.70;54.80
26697;BME280;14312;52.614;13.496;2022-08-21T07:56:33;100905.91;;;24.77;54.18
26697;BME280;14312;52.614;13.496;2022-08-21T07:59:19;100915.16;;;24.84;54.06
26697;BME280;14312;52.614;13.496;2022-08-21T08:02:04;100914.97;;;24.89;54.27
26697;BME280;14312;52.614;13.496;2022-08-21T08:05:01;100915.44;;;25.00;53.60
26697;BME280;14312;52.614;13.496;2022-08-21T08:07:47;100907.69;;;25.02;53.78
26697;BME280;14312;52.614;13.496;2022-08-21T08:10:34;100909.56;;;25.10;53.78
26697;BME280;14312;52.614;13.496;2022-08-21T08:13:20;100919.97;;;25.17;53.95
26697;BME280;14312;52.614;13.496;2022-08-21T08:18:50;100912.66;;;25.29;52.79
26697;BME280;14312;52.614;13.496;2022-08-21T08:21:36;100906.69;;;25.36;52.68
26697;BME280;14312;52.614;13.496;2022-08-21T08:24:23;100907.72;;;25.44;52.87
26697;BME280;14312;52.614;13.496;2022-08-21T08:27:09;100906.41;;;25.50;52.47
26697;BME280;14312;52.614;13.496;2022-08-21T08:29:55;100908.94;;;25.55;52.07
26697;BME280;14312;52.614;13.496;2022-08-21T08:32:41;100909.25;;;25.62;52.48
26697;BME280;14312;52.614;13.496;2022-08-21T08:35:27;100918.16;;;25.71;51.50
26697;BME280;14312;52.614;13.496;2022-08-21T08:38:15;100919.53;;;25.77;51.24
26697;BME280;14312;52.614;13.496;2022-08-21T08:41:11;100917.06;;;25.84;50.86
26697;BME280;14312;52.614;13.496;2022-08-21T08:44:01;100914.78;;;25.86;50.38
26697;BME280;14312;52.614;13.496;2022-08-21T08:46:50;100906.50;;;25.95;50.42
26697;BME280;14312;52.614;13.496;2022-08-21T08:49:41;100907.56;;;26.02;50.60
26697;BME280;14312;52.614;13.496;2022-08-21T08:52:53;100904.41;;;26.12;50.48
26697;BME280;14312;52.614;13.496;2022-08-21T08:55:42;100895.53;;;26.16;50.52
26697;BME280;14312;52.614;13.496;2022-08-21T08:58:31;100896.56;;;26.23;50.15
26697;BME280;14312;52.614;13.496;2022-08-21T09:01:19;100899.94;;;26.29;50.18
26697;BME280;14312;52.614;13.496;2022-08-21T09:04:06;100903.25;;;26.34;50.11
26697;BME280;14312;52.614;13.496;2022-08-21T09:10:01;100890.38;;;26.47;47.36
26697;BME280;14312;52.614;13.496;2022-08-21T09:12:53;100889.34;;;26.51;49.37
26697;BME280;14312;52.614;13.496;2022-08-21T09:19:15;100902.69;;;26.65;49.15
26697;BME280;14312;52.614;13.496;2022-08-21T09:25:23;100899.03;;;26.73;48.66
26697;BME280;14312;52.614;13.496;2022-08-21T09:28:10;100898.38;;;26.76;49.42
26697;BME280;14312;52.614;13.496;2022-08-21T09:30:58;100894.94;;;26.79;48.84
26697;BME280;14312;52.614;13.496;2022-08-21T09:33:48;100898.59;;;26.83;48.43
26697;BME280;14312;52.614;13.496;2022-08-21T09:36:45;100897.88;;;26.86;47.25
26697;BME280;14312;52.614;13.496;2022-08-21T09:39:39;100898.84;;;26.91;47.21
26697;BME280;14312;52.614;13.496;2022-08-21T09:42:30;100899.75;;;26.95;47.31
26697;BME280;14312;52.614;13.496;2022-08-21T09:45:25;100902.94;;;26.97;47.63
26697;BME280;14312;52.614;13.496;2022-08-21T09:48:14;100894.50;;;27.02;47.43
26697;BME280;14312;52.614;13.496;2022-08-21T09:51:15;100904.06;;;27.08;46.90
26697;BME280;14312;52.614;13.496;2022-08-21T09:56:59;100902.72;;;27.14;45.96
26697;BME280;14312;52.614;13.496;2022-08-21T10:00:19;100902.78;;;27.17;46.08
26697;BME280;14312;52.614;13.496;2022-08-21T10:03:19;100908.41;;;27.21;45.86
26697;BME280;14312;52.614;13.496;2022-08-21T10:06:07;100911.56;;;27.23;46.32
26697;BME280;14312;52.614;13.496;2022-08-21T10:09:12;100901.97;;;27.29;45.48
26697;BME280;14312;52.614;13.496;2022-08-21T10:12:11;100906.41;;;27.34;45.37
26697;BME280;14312;52.614;13.496;2022-08-21T10:15:24;100906.50;;;27.37;46.19
26697;BME280;14312;52.614;13.496;2022-08-21T10:18:41;100906.72;;;27.44;45.87
26697;BME280;14312;52.614;13.496;2022-08-21T10:24:52;100910.38;;;27.48;45.96
26697;BME280;14312;52.614;13.496;2022-08-21T10:28:02;100903.19;;;27.56;45.40
26697;BME280;14312;52.614;13.496;2022-08-21T10:39:39;100904.41;;;27.71;45.05
26697;BME280;14312;52.614;13.496;2022-08-21T10:46:07;100904.59;;;27.78;44.77
26697;BME280;14312;52.614;13.496;2022-08-21T10:52:13;100910.56;;;27.67;43.19
26697;BME280;14312;52.614;13.496;2022-08-21T10:55:25;100903.00;;;27.77;43.46
26697;BME280;14312;52.614;13.496;2022-08-21T10:58:35;100906.97;;;27.79;43.66
26697;BME280;14312;52.614;13.496;2022-08-21T11:01:28;100906.16;;;27.79;44.23
26697;BME280;14312;52.614;13.496;2022-08-21T11:04:24;100901.59;;;27.83;44.07
26697;BME280;14312;52.614;13.496;2022-08-21T11:07:20;100902.47;;;27.87;43.75
26697;BME280;14312;52.614;13.496;2022-08-21T11:10:16;100906.13;;;27.91;44.70
26697;BME280;14312;52.614;13.496;2022-08-21T11:13:19;100898.09;;;27.98;44.15
26697;BME280;14312;52.614;13.496;2022-08-21T11:19:17;100898.97;;;28.02;44.59
26697;BME280;14312;52.614;13.496;2022-08-21T11:22:15;100903.16;;;28.12;43.70
26697;BME280;14312;52.614;13.496;2022-08-21T11:28:04;100898.78;;;28.23;43.84
26697;BME280;14312;52.614;13.496;2022-08-21T11:34:03;100900.91;;;28.29;43.11
26697;BME280;14312;52.614;13.496;2022-08-21T11:37:01;100887.28;;;28.33;42.95
26697;BME280;14312;52.614;13.496;2022-08-21T11:52:35;100890.03;;;28.49;41.22
26697;BME280;14312;52.614;13.496;2022-08-21T11:55:38;100893.31;;;28.54;41.71
26697;BME280;14312;52.614;13.496;2022-08-21T11:58:31;100885.53;;;28.56;41.37
26697;BME280;14312;52.614;13.496;2022-08-21T12:01:24;100883.19;;;28.58;41.05
26697;BME280;14312;52.614;13.496;2022-08-21T12:04:28;100886.47;;;28.64;41.02
26697;BME280;14312;52.614;13.496;2022-08-21T12:07:17;100884.63;;;28.68;42.08
26697;BME280;14312;52.614;13.496;2022-08-21T12:10:17;100881.25;;;28.74;41.99
26697;BME280;14312;52.614;13.496;2022-08-21T12:13:10;100876.31;;;28.80;41.92
26697;BME280;14312;52.614;13.496;2022-08-21T12:19:06;100879.03;;;28.96;40.84
26697;BME280;14312;52.614;13.496;2022-08-21T12:25:05;100875.78;;;29.09;39.16
26697;BME280;14312;52.614;13.496;2022-08-21T12:28:01;100874.69;;;29.14;40.97
26697;BME280;14312;52.614;13.496;2022-08-21T12:30:47;100868.84;;;29.15;40.75
26697;BME280;14312;52.614;13.496;2022-08-21T12:33:37;100872.19;;;29.25;39.99
26697;BME280;14312;52.614;13.496;2022-08-21T12:37:02;100868.38;;;29.29;39.31
26697;BME280;14312;52.614;13.496;2022-08-21T12:39:43;100867.56;;;29.29;38.07
26697;BME280;14312;52.614;13.496;2022-08-21T12:42:42;100862.25;;;29.36;37.79
26697;BME280;14312;52.614;13.496;2022-08-21T12:45:50;100859.25;;;29.41;37.52
26697;BME280;14312;52.614;13.496;2022-08-21T12:48:57;100862.47;;;29.46;38.89
26697;BME280;14312;52.614;13.496;2022-08-21T12:52:00;100862.53;;;29.50;38.84
26697;BME280;14312;52.614;13.496;2022-08-21T12:54:47;100860.31;;;29.55;39.29
26697;BME280;14312;52.614;13.496;2022-08-21T12:57:35;100856.97;;;29.66;38.88
26697;BME280;14312;52.614;13.496;2022-08-21T13:00:24;100849.66;;;29.73;39.25
26697;BME280;14312;52.614;13.496;2022-08-21T13:03:13;100859.28;;;29.83;38.93
26697;BME280;14312;52.614;13.496;2022-08-21T13:06:03;100863.38;;;29.92;38.50
26697;BME280;14312;52.614;13.496;2022-08-21T13:08:54;100858.00;;;30.00;37.54
26697;BME280;14312;52.614;13.496;2022-08-21T13:11:45;100846.72;;;30.05;37.56
26697;BME280;14312;52.614;13.496;2022-08-21T13:14:36;100852.75;;;30.14;37.44
26697;BME280;14312;52.614;13.496;2022-08-21T13:17:24;100851.28;;;30.20;37.25
26697;BME280;14312;52.614;13.496;2022-08-21T13:20:22;100851.53;;;30.34;36.22
26697;BME280;14312;52.614;13.496;2022-08-21T13:23:24;100851.72;;;30.45;34.98
26697;BME280;14312;52.614;13.496;2022-08-21T13:26:19;100849.94;;;30.56;35.00
26697;BME280;14312;52.614;13.496;2022-08-21T13:29:11;100856.06;;;30.68;37.15
26697;BME280;14312;52.614;13.496;2022-08-21T13:32:00;100846.81;;;30.84;36.38
26697;BME280;14312;52.614;13.496;2022-08-21T13:34:47;100850.09;;;30.93;36.34
26697;BME280;14312;52.614;13.496;2022-08-21T13:37:34;100850.75;;;31.09;35.86
26697;BME280;14312;52.614;13.496;2022-08-21T13:40:26;100853.69;;;31.23;34.20
26697;BME280;14312;52.614;13.496;2022-08-21T13:43:17;100851.84;;;31.34;34.86
26697;BME280;14312;52.614;13.496;2022-08-21T13:46:10;100852.00;;;31.48;34.45
26697;BME280;14312;52.614;13.496;2022-08-21T13:48:59;100854.09;;;31.59;34.72
26697;BME280;14312;52.614;13.496;2022-08-21T13:51:46;100851.09;;;31.71;34.88
26697;BME280;14312;52.614;13.496;2022-08-21T13:54:36;100837.81;;;31.80;31.98
26697;BME280;14312;52.614;13.496;2022-08-21T13:57:31;100848.50;;;31.85;29.78
26697;BME280;14312;52.614;13.496;2022-08-21T14:00:24;100846.59;;;31.93;32.08
26697;BME280;14312;52.614;13.496;2022-08-21T14:03:14;100845.88;;;31.99;31.16
26697;BME280;14312;52.614;13.496;2022-08-21T14:06:18;100847.53;;;32.07;30.18
26697;BME280;14312;52.614;13.496;2022-08-21T14:09:33;100841.34;;;32.17;31.75
26697;BME280;14312;52.614;13.496;2022-08-21T14:12:29;100840.56;;;32.20;31.18
26697;BME280;14312;52.614;13.496;2022-08-21T14:15:20;100850.88;;;32.27;31.78
26697;BME280;14312;52.614;13.496;2022-08-21T14:18:18;100845.06;;;32.39;28.98
26697;BME280;14312;52.614;13.496;2022-08-21T14:21:08;100836.06;;;32.46;31.60
26697;BME280;14312;52.614;13.496;2022-08-21T14:24:11;100845.56;;;32.55;29.93
26697;BME280;14312;52.614;13.496;2022-08-21T14:27:03;100849.13;;;32.56;31.47
26697;BME280;14312;52.614;13.496;2022-08-21T14:29:58;100845.22;;;32.64;29.05
26697;BME280;14312;52.614;13.496;2022-08-21T14:32:44;100835.06;;;32.68;31.54
26697;BME280;14312;52.614;13.496;2022-08-21T14:35:30;100838.25;;;32.77;32.24
26697;BME280;14312;52.614;13.496;2022-08-21T14:38:19;100827.69;;;32.93;32.06
26697;BME280;14312;52.614;13.496;2022-08-21T14:41:25;100834.09;;;33.15;31.46
26697;BME280;14312;52.614;13.496;2022-08-21T14:44:16;100829.88;;;33.32;32.16
26697;BME280;14312;52.614;13.496;2022-08-21T14:47:02;100830.69;;;33.54;31.79
26697;BME280;14312;52.614;13.496;2022-08-21T14:49:49;100831.19;;;33.77;31.86
26697;BME280;14312;52.614;13.496;2022-08-21T14:52:36;100833.97;;;33.95;30.97
26697;BME280;14312;52.614;13.496;2022-08-21T14:55:22;100839.88;;;34.11;30.72
26697;BME280;14312;52.614;13.496;2022-08-21T14:58:08;100834.34;;;34.18;29.77
26697;BME280;14312;52.614;13.496;2022-08-21T15:00:54;100831.25;;;34.23;30.12
26697;BME280;14312;52.614;13.496;2022-08-21T15:03:42;100831.25;;;34.23;30.23
26697;BME280;14312;52.614;13.496;2022-08-21T15:06:28;100843.06;;;34.20;30.06
26697;BME280;14312;52.614;13.496;2022-08-21T15:09:14;100831.59;;;34.14;29.61
26697;BME280;14312;52.614;13.496;2022-08-21T15:12:01;100834.34;;;34.11;29.57
26697;BME280;14312;52.614;13.496;2022-08-21T15:14:47;100841.88;;;34.00;29.38
26697;BME280;14312;52.614;13.496;2022-08-21T15:17:33;100839.13;;;33.89;29.25
26697;BME280;14312;52.614;13.496;2022-08-21T15:20:19;100848.97;;;33.79;29.17
26697;BME280;14312;52.614;13.496;2022-08-21T15:23:06;100835.88;;;33.69;29.02
26697;BME280;14312;52.614;13.496;2022-08-21T15:25:53;100843.75;;;33.53;29.21
26697;BME280;14312;52.614;13.496;2022-08-21T15:28:39;100842.13;;;33.41;30.03
26697;BME280;14312;52.614;13.496;2022-08-21T15:31:25;100843.69;;;33.32;30.31
26697;BME280;14312;52.614;13.496;2022-08-21T15:34:11;100834.53;;;33.21;30.10
26697;BME280;14312;52.614;13.496;2022-08-21T15:36:57;100834.91;;;33.16;30.52
26697;BME280;14312;52.614;13.496;2022-08-21T15:39:43;100833.28;;;33.08;30.62